Time;durP1;ratioP1;P1;durP2;ratioP2;P2;SDS_P1;SDS_P2;PMS_P1;PMS_P2;Temp;Humidity;BMP_temperature;BMP_pressure;BME280_temperature;BME280_humidity;BME280_pressure;Samples;Min_cycle;Max_cycle;Signal;HPM_P1;HPM_P2
2023/08/01 00:01:55;;;;;;;1.80;1.55;;;;;;;25.72;80.81;100157.84;4973633;28;20059;-68
2023/08/01 00:04:23;;;;;;;1.90;1.80;;;;;;;25.74;79.08;100152.69;4973467;28;20043;-68
2023/08/01 00:51:28;;;;;;;4.72;3.13;;;;;;;25.50;79.61;100076.53;4972258;28;20050;-67
2023/08/01 00:53:57;;;;;;;2.72;2.47;;;;;;;25.46;81.09;100072.13;4973256;28;20054;-67
2023/08/01 00:56:25;;;;;;;2.50;2.30;;;;;;;25.23;80.70;100076.81;4993233;28;20154;-67
2023/08/01 00:58:53;;;;;;;4.70;2.33;;;;;;;25.15;81.83;100072.41;4978792;28;20478;-67
2023/08/01 01:01:20;;;;;;;3.10;2.50;;;;;;;25.23;81.97;100064.84;4978203;28;20413;-67
2023/08/01 01:03:50;;;;;;;2.63;2.42;;;;;;;25.07;81.05;100062.38;4996023;28;20058;-67
2023/08/01 01:06:32;;;;;;;3.25;2.70;;;;;;;24.92;81.47;100045.50;4978763;28;20058;-67
2023/08/01 01:09:00;;;;;;;2.50;2.30;;;;;;;24.75;82.30;100046.97;4996086;28;20043;-67
2023/08/01 01:11:28;;;;;;;2.80;2.40;;;;;;;24.73;80.74;100042.97;4978490;28;20046;-68
2023/08/01 01:13:56;;;;;;;2.83;2.60;;;;;;;24.90;81.88;100036.69;4977768;28;20054;-67
2023/08/01 01:16:23;;;;;;;8.38;2.90;;;;;;;25.04;82.74;100037.94;4977531;28;20046;-67
2023/08/01 01:18:51;;;;;;;2.72;2.40;;;;;;;25.04;80.79;100040.75;4995423;28;20413;-67
2023/08/01 01:21:19;;;;;;;4.70;2.38;;;;;;;24.91;81.43;100027.09;4994933;28;20390;-67
2023/08/01 01:23:49;;;;;;;3.55;2.40;;;;;;;25.02;81.64;100031.97;4995849;28;20062;-67
2023/08/01 01:26:21;;;;;;;2.67;2.47;;;;;;;25.09;81.66;100035.56;4977979;28;20042;-68
2023/08/01 01:28:50;;;;;;;5.18;2.65;;;;;;;25.20;81.69;100027.22;4994918;28;20054;-68
2023/08/01 01:31:19;;;;;;;4.10;2.78;;;;;;;25.21;80.31;100036.41;4994278;28;20065;-68
2023/08/01 01:33:47;;;;;;;4.28;2.50;;;;;;;25.16;80.38;100032.00;4995408;28;20058;-67
2023/08/01 01:36:15;;;;;;;2.50;2.30;;;;;;;25.18;81.69;100021.19;4994327;28;20069;-67
2023/08/01 01:38:43;;;;;;;3.03;2.72;;;;;;;25.17;81.13;100019.59;4978024;28;20051;-68
2023/08/01 01:41:11;;;;;;;2.78;2.58;;;;;;;25.16;82.81;100006.81;4994796;28;20054;-68
2023/08/01 01:43:39;;;;;;;4.50;2.63;;;;;;;25.11;82.56;100006.41;4994455;28;20054;-67
2023/08/01 01:46:07;;;;;;;3.28;2.72;;;;;;;25.21;81.03;100000.81;4977843;28;20042;-67
2023/08/01 01:48:34;;;;;;;3.08;2.30;;;;;;;25.12;81.01;100003.19;4994994;28;20398;-67
2023/08/01 01:51:02;;;;;;;4.32;2.38;;;;;;;25.16;81.49;100004.00;4994069;28;20042;-68
2023/08/01 01:53:30;;;;;;;3.13;2.53;;;;;;;25.18;80.14;99996.00;4993528;28;20516;-68
2023/08/01 01:55:58;;;;;;;3.40;2.30;;;;;;;25.11;80.72;99996.00;4977526;28;20409;-68
2023/08/01 01:58:26;;;;;;;2.58;2.13;;;;;;;25.15;80.74;99985.63;4977017;28;20049;-68
2023/08/01 02:00:53;;;;;;;2.55;2.20;;;;;;;25.11;81.21;99984.78;4993953;28;20056;-67
2023/08/01 02:03:21;;;;;;;3.33;2.20;;;;;;;25.08;80.92;99988.41;4993570;28;20480;-68
2023/08/01 02:05:49;;;;;;;3.50;2.03;;;;;;;25.09;81.75;99978.78;4994460;28;20058;-67
2023/08/01 02:08:18;;;;;;;1.90;1.73;;;;;;;25.03;81.89;99972.75;4992896;28;20493;-68
2023/08/01 02:10:48;;;;;;;2.30;2.10;;;;;;;25.03;82.22;99972.75;4978004;28;20058;-67
2023/08/01 02:13:16;;;;;;;2.85;2.65;;;;;;;25.07;83.81;99967.22;4994772;28;20050;-67
2023/08/01 02:15:44;;;;;;;4.60;2.47;;;;;;;25.09;90.07;99971.19;4994991;28;20584;-68
2023/08/01 02:18:12;;;;;;;5.38;2.80;;;;;;;24.98;90.51;99966.75;4977949;28;20057;-67
2023/08/01 02:20:39;;;;;;;8.32;2.60;;;;;;;24.82;91.09;99957.50;4977367;28;20042;-67
2023/08/01 02:23:07;;;;;;;9.40;2.83;;;;;;;24.69;91.42;99959.03;4977247;28;20047;-67
2023/08/01 02:25:40;;;;;;;7.22;2.92;;;;;;;24.60;92.42;99964.97;4976969;28;20046;-68
2023/08/01 02:28:08;;;;;;;4.22;2.90;;;;;;;24.55;93.00;99968.94;4994144;28;20492;-68
2023/08/01 02:30:36;;;;;;;3.25;1.95;;;;;;;24.34;89.40;99968.81;4994824;28;20047;-67
2023/08/01 02:33:04;;;;;;;2.92;2.47;;;;;;;24.37;92.13;99968.84;4993997;28;20408;-68
2023/08/01 02:35:32;;;;;;;2.50;2.30;;;;;;;24.39;89.53;99974.06;4994449;28;20504;-67
2023/08/01 02:38:00;;;;;;;2.75;2.50;;;;;;;24.46;89.79;99982.47;4994607;28;20481;-67
2023/08/01 02:40:28;;;;;;;2.60;2.40;;;;;;;24.54;89.15;99978.53;4993345;28;20537;-67
2023/08/01 02:42:55;;;;;;;2.65;2.45;;;;;;;24.49;88.61;99980.91;4977419;28;20054;-67
2023/08/01 02:45:23;;;;;;;2.40;2.20;;;;;;;24.51;90.82;99975.72;4975944;28;20062;-67
2023/08/01 02:47:51;;;;;;;2.83;2.47;;;;;;;24.50;89.82;99966.53;4977055;28;20069;-67
2023/08/01 02:50:18;;;;;;;2.40;2.20;;;;;;;24.52;90.10;99966.13;4994385;28;20412;-67
2023/08/01 02:52:46;;;;;;;2.15;2.00;;;;;;;24.53;89.76;99965.72;4993848;28;20623;-67
2023/08/01 02:55:14;;;;;;;1.92;1.83;;;;;;;24.51;89.48;99961.72;4992958;28;20054;-67
2023/08/01 02:57:42;;;;;;;2.40;2.20;;;;;;;24.49;90.96;99962.09;4992119;28;20058;-67
2023/08/01 03:00:11;;;;;;;3.50;2.78;;;;;;;24.54;90.50;99958.16;4993649;28;20057;-67
2023/08/01 03:02:39;;;;;;;2.40;2.10;;;;;;;24.62;86.94;99957.00;4975070;28;20074;-67
2023/08/01 03:05:08;;;;;;;2.30;2.10;;;;;;;24.54;92.15;99950.56;4992985;28;20050;-67
2023/08/01 03:07:36;;;;;;;2.40;2.05;;;;;;;24.46;90.50;99948.09;5011406;28;20045;-67
2023/08/01 03:10:04;;;;;;;2.30;2.10;;;;;;;24.42;91.78;99943.31;5011942;28;20374;-67
2023/08/01 03:12:31;;;;;;;2.40;2.20;;;;;;;24.41;91.18;99943.69;5002418;28;20049;-67
2023/08/01 03:14:59;;;;;;;3.58;2.65;;;;;;;24.38;95.13;99936.88;5012433;28;20049;-67
2023/08/01 03:17:27;;;;;;;3.08;2.78;;;;;;;24.31;91.39;99941.63;4995101;28;20050;-67
2023/08/01 03:19:55;;;;;;;5.13;2.13;;;;;;;24.43;92.08;99938.50;5012456;28;20061;-67
2023/08/01 03:22:23;;;;;;;3.45;2.13;;;;;;;24.43;93.53;99928.13;5011316;28;20392;-67
2023/08/01 03:24:51;;;;;;;2.40;2.13;;;;;;;24.47;92.12;99930.94;5011856;28;20053;-67
2023/08/01 03:27:19;;;;;;;3.00;2.72;;;;;;;24.42;91.72;99937.72;5012907;28;20065;-67
2023/08/01 03:29:46;;;;;;;2.08;1.95;;;;;;;24.47;92.79;99938.53;5010925;28;20378;-68
2023/08/01 03:32:14;;;;;;;2.17;2.03;;;;;;;24.42;93.96;99943.31;5012287;28;20053;-67
2023/08/01 03:34:42;;;;;;;2.33;2.13;;;;;;;24.35;92.59;99931.28;5012934;28;20077;-67
2023/08/01 03:37:10;;;;;;;2.30;2.10;;;;;;;24.42;93.87;99934.09;5011648;28;20053;-67
2023/08/01 03:39:39;;;;;;;2.28;2.08;;;;;;;24.37;93.11;99940.88;5012071;28;20057;-67
2023/08/01 03:42:07;;;;;;;3.45;2.30;;;;;;;24.43;95.83;99941.31;5011450;28;20042;-67
2023/08/01 03:44:35;;;;;;;2.95;2.40;;;;;;;24.36;92.24;99942.09;5012788;28;20477;-67
2023/08/01 03:47:03;;;;;;;2.50;2.30;;;;;;;24.41;91.77;99936.13;5012787;28;20420;-67
2023/08/01 03:49:31;;;;;;;2.70;2.47;;;;;;;24.40;94.25;99934.50;5012616;28;20045;-67
2023/08/01 03:51:59;;;;;;;2.90;2.50;;;;;;;24.45;92.68;99936.13;5012359;28;20050;-68
2023/08/01 03:54:27;;;;;;;3.50;2.42;;;;;;;24.55;91.94;99940.97;5012000;28;20054;-68
2023/08/01 03:56:55;;;;;;;3.35;2.30;;;;;;;24.52;92.27;99938.16;5012334;28;20050;-67
2023/08/01 03:59:23;;;;;;;2.90;2.03;;;;;;;24.54;94.19;99922.59;5012397;28;20057;-68
2023/08/01 04:01:50;;;;;;;2.17;2.08;;;;;;;24.46;92.21;99914.56;5012430;28;20046;-68
2023/08/01 04:04:20;;;;;;;3.67;2.40;;;;;;;24.46;92.08;99911.75;4994838;28;20365;-68
2023/08/01 04:06:47;;;;;;;2.70;2.50;;;;;;;24.43;92.27;99930.13;5012439;28;20480;-68
2023/08/01 04:09:15;;;;;;;4.47;2.85;;;;;;;24.42;92.08;99931.31;4993961;28;20053;-68
2023/08/01 04:11:43;;;;;;;3.15;2.85;;;;;;;24.46;93.55;99939.72;5011400;28;20065;-67
2023/08/01 04:14:11;;;;;;;3.40;3.00;;;;;;;24.52;94.58;99940.94;5012504;28;20041;-67
2023/08/01 04:16:39;;;;;;;2.85;2.65;;;;;;;24.54;93.62;99922.59;5012285;28;20046;-68
2023/08/01 04:19:07;;;;;;;3.17;2.80;;;;;;;24.54;94.22;99905.03;5012244;28;20404;-68
2023/08/01 04:21:35;;;;;;;2.75;2.55;;;;;;;24.50;93.38;99890.22;5014367;28;20489;-68
2023/08/01 04:24:03;;;;;;;3.40;3.05;;;;;;;24.36;93.35;99871.38;5015601;28;20061;-67
2023/08/01 04:26:30;;;;;;;4.28;2.45;;;;;;;24.24;93.61;99864.13;5016012;28;20053;-68
2023/08/01 04:28:58;;;;;;;3.47;3.13;;;;;;;24.52;91.18;99877.44;5015790;28;20053;-67
2023/08/01 04:31:26;;;;;;;3.15;2.88;;;;;;;24.77;87.54;99901.09;5016106;28;20045;-67
2023/08/01 04:33:54;;;;;;;5.82;3.10;;;;;;;24.86;87.79;99907.16;5016023;28;20061;-67
2023/08/01 04:36:21;;;;;;;3.63;2.75;;;;;;;24.90;92.72;99899.59;5016047;28;20049;-68
2023/08/01 04:38:49;;;;;;;4.20;2.97;;;;;;;24.89;87.04;99900.78;5015576;28;20042;-67
2023/08/01 04:41:17;;;;;;;2.78;2.25;;;;;;;24.93;88.04;99900.78;5016052;28;20038;-68
2023/08/01 04:43:45;;;;;;;3.08;2.40;;;;;;;24.94;83.43;99896.78;5014989;28;20053;-67
2023/08/01 04:46:13;;;;;;;3.10;2.53;;;;;;;25.11;85.91;99892.41;5015860;28;20057;-67
2023/08/01 04:48:42;;;;;;;5.47;2.35;;;;;;;25.04;91.73;99893.22;5015945;28;20042;-67
2023/08/01 04:51:09;;;;;;;4.22;3.22;;;;;;;25.16;93.09;99891.25;5015345;28;20057;-67
2023/08/01 04:53:37;;;;;;;4.10;2.70;;;;;;;25.07;92.57;99891.63;5014948;28;20440;-67
2023/08/01 04:56:05;;;;;;;4.28;2.70;;;;;;;24.91;93.09;99887.19;5015240;28;20058;-68
2023/08/01 04:58:33;;;;;;;3.10;2.80;;;;;;;24.91;93.55;99898.38;5015952;28;20037;-67
2023/08/01 05:01:00;;;;;;;4.93;2.70;;;;;;;24.79;95.35;99909.91;5015348;28;20077;-67
2023/08/01 05:03:28;;;;;;;3.35;3.05;;;;;;;24.94;92.70;99905.97;5015716;28;20050;-67
2023/08/01 05:05:56;;;;;;;5.45;3.17;;;;;;;24.91;94.34;99903.97;5015494;28;20054;-67
2023/08/01 05:08:24;;;;;;;5.30;3.00;;;;;;;25.01;92.56;99901.59;5014966;28;20051;-67
2023/08/01 05:10:52;;;;;;;5.97;3.10;;;;;;;25.15;91.15;99907.22;5015165;28;20065;-67
2023/08/01 05:13:20;;;;;;;4.82;3.15;;;;;;;25.04;92.07;99898.00;5014645;28;20046;-67
2023/08/01 05:15:47;;;;;;;4.47;3.10;;;;;;;25.00;91.55;99902.78;5015089;28;20065;-68
2023/08/01 05:18:17;;;;;;;3.67;3.10;;;;;;;24.83;89.92;99891.19;5015318;28;20480;-68
2023/08/01 05:20:45;;;;;;;3.10;2.80;;;;;;;24.90;89.31;99899.59;4997878;28;20049;-67
2023/08/01 05:23:12;;;;;;;4.45;3.17;;;;;;;24.92;91.65;99902.78;5014645;28;20058;-68
2023/08/01 05:25:40;;;;;;;4.93;2.55;;;;;;;24.88;90.46;99899.16;5014393;28;20058;-67
2023/08/01 05:28:08;;;;;;;4.50;2.95;;;;;;;24.95;92.68;99890.81;5014954;28;20385;-67
2023/08/01 05:30:36;;;;;;;6.40;2.60;;;;;;;24.69;94.47;99889.09;5013824;28;20041;-67
2023/08/01 05:33:04;;;;;;;6.90;3.28;;;;;;;24.79;90.48;99893.13;5012930;28;20060;-67
2023/08/01 05:35:32;;;;;;;5.88;2.65;;;;;;;25.03;92.17;99888.03;5014837;28;20472;-67
2023/08/01 05:38:00;;;;;;;6.57;2.55;;;;;;;25.20;89.76;99890.06;5014958;28;20054;-68
2023/08/01 05:40:27;;;;;;;4.72;2.67;;;;;;;25.27;91.43;99894.06;5014931;28;20056;-68
2023/08/01 05:42:55;;;;;;;3.55;2.60;;;;;;;25.23;89.48;99892.03;5014277;28;20412;-68
2023/08/01 05:45:23;;;;;;;4.53;2.60;;;;;;;25.34;89.69;99889.28;5014737;28;20069;-68
2023/08/01 05:47:51;;;;;;;4.80;2.95;;;;;;;25.41;89.41;99885.66;5014016;28;20050;-68
2023/08/01 05:50:19;;;;;;;5.63;2.60;;;;;;;25.48;90.44;99874.44;5014376;28;20053;-69
2023/08/01 05:52:46;;;;;;;3.20;2.65;;;;;;;25.52;89.84;99870.84;5014472;28;20073;-68
2023/08/01 05:55:14;;;;;;;3.05;2.22;;;;;;;25.48;87.15;99866.03;4996239;28;20061;-68
2023/08/01 05:57:42;;;;;;;5.97;2.70;;;;;;;25.57;89.20;99862.09;5014623;28;20050;-69
2023/08/01 06:00:11;;;;;;;3.53;2.47;;;;;;;25.64;87.54;99870.47;5014164;28;20394;-69
2023/08/01 06:02:41;;;;;;;3.92;2.92;;;;;;;25.75;88.57;99871.28;5013836;28;20049;-68
2023/08/01 06:05:10;;;;;;;4.15;2.60;;;;;;;25.83;86.34;99872.06;5014509;28;20046;-69
2023/08/01 06:07:38;;;;;;;5.68;2.60;;;;;;;25.93;84.80;99873.25;5014073;28;20396;-69
2023/08/01 06:10:06;;;;;;;3.70;3.00;;;;;;;26.02;84.91;99884.03;5013662;28;20400;-68
2023/08/01 06:12:35;;;;;;;3.30;2.75;;;;;;;26.15;87.85;99878.81;5013301;28;20392;-68
2023/08/01 06:15:04;;;;;;;2.95;2.63;;;;;;;26.19;85.14;99882.38;5013760;28;20392;-68
2023/08/01 06:17:33;;;;;;;4.32;2.60;;;;;;;26.03;82.75;99875.25;5013629;28;20049;-68
2023/08/01 06:20:04;;;;;;;2.97;2.55;;;;;;;26.08;83.23;99867.59;5013639;28;20408;-69
2023/08/01 06:22:32;;;;;;;3.58;2.78;;;;;;;26.09;82.49;99866.41;5013395;28;20049;-68
2023/08/01 06:25:01;;;;;;;2.42;2.22;;;;;;;26.05;83.36;99863.59;5013212;28;20049;-69
2023/08/01 06:27:29;;;;;;;3.08;2.78;;;;;;;26.13;83.25;99859.59;5013022;28;20374;-69
2023/08/01 06:29:57;;;;;;;2.72;2.53;;;;;;;26.00;82.68;99848.00;5013862;28;20400;-68
2023/08/01 06:32:25;;;;;;;2.55;2.33;;;;;;;25.85;81.63;99849.25;5013073;28;20393;-69
2023/08/01 06:34:53;;;;;;;2.70;2.50;;;;;;;26.00;81.69;99853.59;5013686;28;20058;-68
2023/08/01 06:37:21;;;;;;;3.75;2.70;;;;;;;26.19;81.70;99847.97;5012689;28;20420;-69
2023/08/01 06:39:50;;;;;;;4.70;2.58;;;;;;;26.19;78.69;99845.94;5013377;28;20131;-69
2023/08/01 06:42:18;;;;;;;4.50;2.78;;;;;;;26.60;79.91;99855.03;5013850;28;20058;-69
2023/08/01 06:44:46;;;;;;;3.50;3.20;;;;;;;26.71;78.51;99852.97;5012865;28;20408;-68
2023/08/01 06:47:14;;;;;;;4.25;3.63;;;;;;;26.68;76.86;99865.00;5013595;28;20393;-69
2023/08/01 06:49:43;;;;;;;2.72;2.53;;;;;;;26.43;75.82;99857.50;5013678;28;20408;-68
2023/08/01 06:52:11;;;;;;;2.97;2.58;;;;;;;26.49;78.73;99850.25;5012889;28;20064;-69
2023/08/01 06:54:40;;;;;;;5.22;2.70;;;;;;;26.69;77.72;99856.16;5013493;28;20397;-69
2023/08/01 06:57:08;;;;;;;3.15;2.95;;;;;;;26.63;78.99;99854.22;5013267;28;20404;-68
2023/08/01 06:59:36;;;;;;;4.80;3.47;;;;;;;26.65;81.50;99843.38;5012166;28;20058;-68
2023/08/01 07:02:05;;;;;;;2.85;2.63;;;;;;;26.52;76.37;99857.88;5013060;28;20061;-68
2023/08/01 07:04:34;;;;;;;4.65;2.63;;;;;;;26.76;78.63;99852.53;5013333;28;20415;-68
2023/08/01 07:07:02;;;;;;;3.20;2.78;;;;;;;26.50;78.22;99857.50;5012928;28;20054;-68
2023/08/01 07:09:32;;;;;;;4.15;2.70;;;;;;;26.62;78.68;99858.22;5013248;28;20392;-69
2023/08/01 07:12:01;;;;;;;4.15;2.75;;;;;;;26.68;77.16;99857.38;5012046;28;20050;-69
2023/08/01 07:14:29;;;;;;;3.65;2.92;;;;;;;26.85;79.97;99857.69;5012480;28;20053;-68
2023/08/01 07:16:57;;;;;;;4.18;2.75;;;;;;;27.04;78.45;99859.22;5011891;28;20061;-69
2023/08/01 07:19:25;;;;;;;4.30;3.25;;;;;;;26.96;78.84;99857.66;5012965;28;20046;-68
2023/08/01 07:21:53;;;;;;;2.38;2.20;;;;;;;26.68;76.96;99856.56;5012064;28;20046;-69
2023/08/01 07:24:24;;;;;;;2.85;2.65;;;;;;;27.01;75.98;99850.81;5013309;28;20053;-69
2023/08/01 07:26:55;;;;;;;5.63;3.00;;;;;;;27.16;77.25;99849.50;5012005;28;20400;-68
2023/08/01 07:29:24;;;;;;;4.38;2.72;;;;;;;27.12;77.77;99847.94;5012131;28;20050;-69
2023/08/01 07:31:52;;;;;;;5.97;2.97;;;;;;;26.80;74.93;99850.53;5012371;28;20374;-70
2023/08/01 07:34:20;;;;;;;4.68;2.40;;;;;;;26.75;72.89;99845.34;5012512;28;20049;-70
2023/08/01 07:36:50;;;;;;;3.50;2.65;;;;;;;27.21;75.08;99829.41;4994533;28;20050;-69
2023/08/01 07:39:19;;;;;;;3.00;2.40;;;;;;;27.67;75.38;99820.19;5012200;28;20069;-69
2023/08/01 07:41:47;;;;;;;5.38;2.70;;;;;;;27.57;72.99;99819.06;5012313;28;20045;-69
2023/08/01 07:44:15;;;;;;;2.47;2.05;;;;;;;27.07;71.93;99819.06;5011751;28;20049;-70
2023/08/01 07:46:43;;;;;;;4.55;2.17;;;;;;;27.10;68.57;99823.06;5013012;28;20115;-69
2023/08/01 07:49:11;;;;;;;2.45;2.20;;;;;;;27.51;69.43;99813.09;5012287;28;20052;-70
2023/08/01 07:51:39;;;;;;;2.00;1.90;;;;;;;27.77;71.13;99808.06;5012018;28;20050;-69
2023/08/01 07:54:07;;;;;;;4.63;2.63;;;;;;;27.89;67.29;99820.78;5012399;28;20050;-69
2023/08/01 07:56:36;;;;;;;2.22;2.00;;;;;;;28.26;64.21;99821.19;5011751;28;20042;-69
2023/08/01 07:59:04;;;;;;;2.85;1.80;;;;;;;27.88;64.34;99822.00;5012269;28;20056;-69
2023/08/01 08:01:32;;;;;;;2.28;2.08;;;;;;;27.91;66.68;99815.53;5012348;28;20062;-70
2023/08/01 08:04:00;;;;;;;4.13;2.20;;;;;;;27.44;67.46;99808.34;5011673;28;20424;-70
2023/08/01 08:06:31;;;;;;;2.70;2.30;;;;;;;27.56;70.15;99809.84;5012661;28;20056;-69
2023/08/01 08:08:59;;;;;;;3.05;2.35;;;;;;;27.72;67.26;99811.31;5013010;28;20038;-68
2023/08/01 08:11:27;;;;;;;2.85;2.30;;;;;;;27.44;68.01;99801.91;5012508;28;20400;-69
2023/08/01 08:13:55;;;;;;;4.57;2.92;;;;;;;27.56;70.81;99804.22;5012620;28;20057;-69
2023/08/01 08:16:23;;;;;;;3.25;2.55;;;;;;;28.00;67.86;99813.00;5012345;28;20054;-69
2023/08/01 08:18:52;;;;;;;3.13;2.33;;;;;;;27.99;66.97;99808.63;5012269;28;20057;-69
2023/08/01 08:21:20;;;;;;;2.97;2.38;;;;;;;28.24;66.89;99812.38;5011926;28;20496;-68
2023/08/01 08:23:48;;;;;;;2.65;2.45;;;;;;;28.84;66.62;99797.88;5011026;28;20500;-69
2023/08/01 08:26:17;;;;;;;4.88;2.90;;;;;;;28.57;66.08;99802.28;5010961;28;20544;-69
2023/08/01 08:28:45;;;;;;;4.78;2.95;;;;;;;28.83;64.06;99790.63;5011562;28;20405;-68
2023/08/01 08:31:13;;;;;;;2.35;1.98;;;;;;;28.99;64.67;99797.69;5011213;28;20054;-69
2023/08/01 08:33:41;;;;;;;2.45;2.22;;;;;;;29.42;62.19;99787.72;5011557;28;20489;-69
2023/08/01 08:36:09;;;;;;;3.35;2.65;;;;;;;29.25;62.97;99787.59;5011170;28;20050;-69
2023/08/01 08:38:37;;;;;;;2.90;2.40;;;;;;;29.52;62.88;99783.94;5011237;28;20046;-69
2023/08/01 08:41:09;;;;;;;2.80;2.30;;;;;;;28.72;64.14;99781.59;5011163;28;20061;-69
2023/08/01 08:43:38;;;;;;;3.63;3.22;;;;;;;28.83;65.54;99785.00;5011462;28;20053;-69
2023/08/01 08:46:09;;;;;;;2.92;2.63;;;;;;;29.51;65.56;99782.31;5011603;28;20057;-69
2023/08/01 08:48:39;;;;;;;4.03;2.22;;;;;;;29.19;64.09;99775.22;5011616;28;20054;-69
2023/08/01 08:51:09;;;;;;;5.68;2.55;;;;;;;28.55;67.84;99784.22;5011652;28;20397;-69
2023/08/01 08:53:37;;;;;;;3.28;2.10;;;;;;;29.39;68.49;99775.28;5011505;28;20050;-68
2023/08/01 08:56:08;;;;;;;3.10;2.40;;;;;;;29.15;68.88;99775.28;5012194;28;20061;-68
2023/08/01 08:58:40;;;;;;;3.50;2.50;;;;;;;29.13;68.18;99766.47;5011493;28;20049;-68
2023/08/01 09:01:09;;;;;;;4.00;1.90;;;;;;;29.67;66.79;99772.38;5011939;28;20054;-69
2023/08/01 09:03:37;;;;;;;2.30;1.70;;;;;;;29.09;67.54;99777.00;5011452;28;20061;-69
2023/08/01 09:06:17;;;;;;;2.08;1.85;;;;;;;29.33;67.04;99768.53;5011758;28;20058;-68
2023/08/01 09:08:54;;;;;;;2.55;1.90;;;;;;;30.08;64.92;99762.69;5015458;28;20409;-69
2023/08/01 09:11:22;;;;;;;2.60;1.80;;;;;;;29.45;66.12;99751.00;5015473;28;20060;-69
2023/08/01 09:13:51;;;;;;;2.38;2.17;;;;;;;29.69;64.73;99755.81;5015509;28;20053;-69
2023/08/01 09:16:19;;;;;;;2.15;1.95;;;;;;;29.97;63.29;99759.31;5015511;28;20062;-69
2023/08/01 09:18:51;;;;;;;2.17;1.98;;;;;;;29.88;64.85;99760.69;5015558;28;20057;-68
2023/08/01 09:21:21;;;;;;;4.05;2.05;;;;;;;29.71;64.07;99759.81;5015350;28;20675;-69
2023/08/01 09:23:49;;;;;;;2.03;1.83;;;;;;;30.09;63.99;99752.22;5015180;28;20052;-69
2023/08/01 09:26:19;;;;;;;2.38;2.03;;;;;;;29.75;62.01;99754.09;5015526;28;20058;-69
2023/08/01 09:28:57;;;;;;;2.05;1.90;;;;;;;30.10;62.91;99748.19;5015157;28;20448;-69
2023/08/01 09:31:34;;;;;;;2.13;1.90;;;;;;;30.17;62.65;99753.69;5015524;28;20049;-69
2023/08/01 09:34:05;;;;;;;1.67;1.50;;;;;;;30.10;63.90;99748.97;5014368;28;20060;-69
2023/08/01 09:36:34;;;;;;;1.58;1.48;;;;;;;29.76;66.11;99747.25;5014101;28;20504;-69
2023/08/01 09:39:03;;;;;;;1.85;1.65;;;;;;;30.01;64.71;99745.94;5013919;28;20046;-68
2023/08/01 09:41:32;;;;;;;1.70;1.60;;;;;;;29.93;63.79;99741.66;5014588;28;20404;-69
2023/08/01 09:44:00;;;;;;;1.90;1.80;;;;;;;30.03;66.07;99738.63;5014151;28;20057;-69
2023/08/01 09:46:28;;;;;;;2.30;2.10;;;;;;;30.07;64.65;99740.56;5014811;28;20053;-70
2023/08/01 09:49:07;;;;;;;2.75;1.70;;;;;;;30.26;65.21;99736.94;5013928;28;20046;-69
2023/08/01 09:51:47;;;;;;;2.35;2.15;;;;;;;30.51;62.40;99731.97;5013697;28;20401;-69
2023/08/01 09:54:16;;;;;;;2.10;2.00;;;;;;;30.00;65.72;99719.75;5013913;28;20050;-68
2023/08/01 09:56:45;;;;;;;2.80;2.13;;;;;;;29.28;66.49;99712.69;4996993;28;20054;-68
2023/08/01 09:59:21;;;;;;;2.70;2.10;;;;;;;29.30;68.75;99713.03;5013762;28;20054;-69
2023/08/01 10:01:51;;;;;;;4.85;2.33;;;;;;;29.08;68.10;99722.69;5014909;28;20783;-69
2023/08/01 10:04:29;;;;;;;2.63;2.40;;;;;;;28.91;68.93;99723.78;5014273;28;20393;-69
2023/08/01 10:07:04;;;;;;;3.22;2.28;;;;;;;29.10;71.60;99725.06;5014309;28;20382;-69
2023/08/01 10:09:35;;;;;;;2.60;2.33;;;;;;;29.53;69.12;99722.72;5014237;28;20061;-69
2023/08/01 10:12:05;;;;;;;3.65;2.40;;;;;;;29.90;67.31;99724.38;5014173;28;20050;-68
2023/08/01 10:14:35;;;;;;;2.33;2.13;;;;;;;29.57;66.47;99709.34;5013695;28;20429;-69
2023/08/01 10:17:03;;;;;;;2.40;2.22;;;;;;;29.78;67.93;99699.66;5013924;28;20058;-69
2023/08/01 10:19:33;;;;;;;2.83;2.60;;;;;;;29.48;67.71;99699.44;5013760;28;20050;-69
2023/08/01 10:22:02;;;;;;;2.92;2.28;;;;;;;29.80;68.28;99702.84;5013746;28;20116;-69
2023/08/01 10:24:32;;;;;;;2.63;2.42;;;;;;;29.86;66.61;99700.31;5014359;28;20053;-69
2023/08/01 10:27:20;;;;;;;5.40;2.28;;;;;;;30.12;64.30;99700.59;5013643;28;20420;-70
2023/08/01 10:29:58;;;;;;;5.28;2.22;;;;;;;30.06;64.32;99705.94;5014011;28;20054;-69
2023/08/01 10:32:37;;;;;;;4.20;2.58;;;;;;;30.33;66.58;99704.13;5013891;28;20049;-68
2023/08/01 10:35:06;;;;;;;2.80;2.50;;;;;;;30.75;62.06;99695.94;5012731;28;20064;-69
2023/08/01 10:37:47;;;;;;;2.85;2.58;;;;;;;31.25;62.21;99695.84;5013436;28;20395;-69
2023/08/01 10:40:15;;;;;;;3.25;2.30;;;;;;;31.79;60.01;99696.38;5013659;28;20489;-69
2023/08/01 10:42:45;;;;;;;1.95;1.85;;;;;;;31.97;57.94;99697.91;5014620;28;20065;-69
2023/08/01 10:45:27;;;;;;;2.45;2.05;;;;;;;31.50;59.92;99685.91;5012389;28;20496;-69
2023/08/01 10:48:10;;;;;;;2.58;2.38;;;;;;;31.68;60.48;99662.78;5013125;28;20050;-69
2023/08/01 10:50:39;;;;;;;3.22;2.40;;;;;;;31.21;60.56;99679.00;5013088;28;20433;-70
2023/08/01 10:53:09;;;;;;;2.15;1.98;;;;;;;31.32;61.94;99673.06;5012413;28;20061;-69
2023/08/01 10:55:45;;;;;;;5.22;2.30;;;;;;;31.84;58.22;99678.06;5012648;28;20432;-69
2023/08/01 10:58:14;;;;;;;2.65;2.42;;;;;;;31.38;59.13;99668.44;5012638;28;20053;-69
2023/08/01 11:00:43;;;;;;;2.70;2.42;;;;;;;31.66;57.30;99668.06;5012866;28;20062;-69
2023/08/01 11:03:11;;;;;;;2.78;2.40;;;;;;;32.23;57.92;99652.66;5012262;28;20054;-68
2023/08/01 11:05:39;;;;;;;2.47;2.28;;;;;;;31.67;58.08;99647.06;4995334;28;20064;-70
2023/08/01 11:08:08;;;;;;;2.85;2.33;;;;;;;31.68;60.26;99645.00;5012348;28;20401;-68
2023/08/01 11:10:37;;;;;;;3.60;2.47;;;;;;;31.48;58.01;99631.84;5012882;28;20054;-69
2023/08/01 11:13:06;;;;;;;2.45;2.25;;;;;;;31.62;56.85;99636.31;5012642;28;20388;-69
2023/08/01 11:15:37;;;;;;;2.95;2.50;;;;;;;31.75;57.35;99645.59;5012553;28;20400;-69
2023/08/01 11:18:09;;;;;;;2.72;2.30;;;;;;;32.26;57.84;99646.09;5012448;28;20050;-69
2023/08/01 11:20:39;;;;;;;5.40;2.55;;;;;;;33.16;54.16;99627.34;5013244;28;20057;-69
2023/08/01 11:23:08;;;;;;;3.00;2.40;;;;;;;33.33;54.28;99625.09;5012637;28;20062;-69
2023/08/01 11:25:45;;;;;;;2.50;2.30;;;;;;;32.54;53.09;99623.78;5012741;28;20061;-69
2023/08/01 11:28:15;;;;;;;4.53;2.38;;;;;;;31.31;54.82;99617.78;5012107;28;20061;-69
2023/08/01 11:30:45;;;;;;;2.85;2.53;;;;;;;31.09;57.82;99626.84;5012191;28;20420;-70
2023/08/01 11:33:17;;;;;;;3.08;2.33;;;;;;;31.16;56.70;99625.03;5012618;28;20726;-70
2023/08/01 11:35:49;;;;;;;3.40;2.63;;;;;;;31.29;57.86;99625.94;5013325;28;20403;-69
2023/08/01 11:38:18;;;;;;;2.97;2.00;;;;;;;31.84;57.44;99613.84;5013300;28;20052;-69
2023/08/01 11:40:49;;;;;;;3.42;2.33;;;;;;;31.76;54.33;99620.91;5012381;28;20405;-69
2023/08/01 11:43:17;;;;;;;3.50;2.58;;;;;;;31.47;56.63;99618.97;5012811;28;20409;-69
2023/08/01 11:45:54;;;;;;;2.72;2.53;;;;;;;31.77;55.41;99622.53;5012750;28;20065;-69
2023/08/01 11:48:23;;;;;;;2.97;2.67;;;;;;;32.11;56.12;99618.25;5012561;28;20046;-70
2023/08/01 11:50:58;;;;;;;3.13;2.78;;;;;;;32.30;55.90;99610.00;5013019;28;20395;-70
2023/08/01 11:53:28;;;;;;;2.67;2.33;;;;;;;32.47;54.48;99601.38;5012775;28;20432;-70
2023/08/01 11:55:56;;;;;;;4.55;2.45;;;;;;;32.41;55.42;99607.59;5012033;28;20520;-69
2023/08/01 11:58:33;;;;;;;2.83;2.63;;;;;;;32.56;52.15;99607.13;5012319;28;20054;-70
2023/08/01 12:01:05;;;;;;;6.10;2.90;;;;;;;32.09;55.65;99609.44;5012317;28;20050;-70
2023/08/01 12:03:45;;;;;;;4.57;2.58;;;;;;;31.97;57.95;99602.53;5011706;28;20408;-69
2023/08/01 12:06:14;;;;;;;3.53;2.53;;;;;;;32.17;55.90;99607.94;5011325;28;20424;-69
2023/08/01 12:08:44;;;;;;;3.00;2.72;;;;;;;31.84;53.23;99605.38;5011163;28;20050;-69
2023/08/01 12:11:29;;;;;;;2.17;1.98;;;;;;;32.03;57.35;99595.06;5011599;28;20405;-69
2023/08/01 12:14:06;;;;;;;2.60;2.40;;;;;;;32.17;53.76;99576.81;5011139;28;20052;-69
2023/08/01 12:16:36;;;;;;;3.08;2.65;;;;;;;32.67;55.91;99570.75;5011191;28;20572;-69
2023/08/01 12:19:05;;;;;;;4.65;2.85;;;;;;;32.66;51.35;99579.69;5011377;28;20416;-67
2023/08/01 12:21:34;;;;;;;2.70;2.50;;;;;;;32.36;52.74;99585.53;5011617;28;20065;-67
2023/08/01 12:24:03;;;;;;;5.00;2.83;;;;;;;32.06;52.54;99576.41;5010820;28;20046;-66
2023/08/01 12:26:31;;;;;;;3.05;2.78;;;;;;;32.24;55.08;99558.81;5011139;28;20058;-67